createdAt,value
2017-05-28T00:01:54.160Z,100539.74
2017-05-28T00:04:23.230Z,100544.09
2017-05-28T00:06:52.297Z,100541.73
2017-05-28T00:09:21.337Z,100543.72
2017-05-28T00:11:50.443Z,100540.96
2017-05-28T00:14:19.483Z,100545.70
2017-05-28T00:16:48.557Z,100543.89
2017-05-28T00:19:17.620Z,100541.16
2017-05-28T00:21:46.680Z,100548.08
2017-05-28T00:24:15.777Z,100543.48
2017-05-28T00:26:44.846Z,100545.91
2017-05-28T00:29:13.936Z,100546.30
2017-05-28T00:31:42.989Z,100546.50
2017-05-28T00:34:12.231Z,100549.28
2017-05-28T00:36:41.465Z,100544.55
2017-05-28T00:39:10.737Z,100552.30
2017-05-28T00:41:39.775Z,100555.08
2017-05-28T00:44:08.088Z,100547.91
2017-05-28T00:46:36.375Z,100551.30
2017-05-28T00:49:05.449Z,100554.48
2017-05-28T00:51:33.725Z,100554.48
2017-05-28T00:54:02.016Z,100568.16
2017-05-28T00:56:31.104Z,100588.03
2017-05-28T00:59:00.224Z,100598.98
2017-05-28T01:01:28.523Z,100592.86
2017-05-28T01:03:57.717Z,100598.84
2017-05-28T01:06:26.068Z,100588.91
2017-05-28T01:08:55.093Z,100586.92
2017-05-28T01:11:24.154Z,100591.53
2017-05-28T01:13:52.433Z,100585.43
2017-05-28T01:16:21.497Z,100585.82
2017-05-28T01:18:51.142Z,100594.14
2017-05-28T01:21:19.426Z,100598.33
2017-05-28T01:23:48.493Z,100607.83
2017-05-28T01:26:16.815Z,100605.24
2017-05-28T01:28:45.870Z,100603.24
2017-05-28T01:31:14.169Z,100594.34
2017-05-28T01:33:43.243Z,100591.59
2017-05-28T01:36:12.326Z,100590.20
2017-05-28T01:38:41.368Z,100586.85
2017-05-28T01:41:10.490Z,100575.75
2017-05-28T01:43:39.552Z,100575.17
2017-05-28T01:46:07.882Z,100575.16
2017-05-28T01:48:36.941Z,100575.19
2017-05-28T01:51:06.025Z,100579.73
2017-05-28T01:53:35.078Z,100583.88
2017-05-28T01:56:03.358Z,100585.09
2017-05-28T01:58:32.428Z,100591.80
2017-05-28T02:01:00.769Z,100590.42
2017-05-28T02:03:29.109Z,100586.06
2017-05-28T02:05:58.170Z,100582.23
2017-05-28T02:08:27.224Z,100580.25
2017-05-28T02:10:56.300Z,100580.23
2017-05-28T02:13:24.592Z,100582.42
2017-05-28T02:15:53.637Z,100582.63
2017-05-28T02:18:22.719Z,100577.66
2017-05-28T02:20:51.771Z,100569.11
2017-05-28T02:23:20.066Z,100572.08
2017-05-28T02:25:48.348Z,100572.26
2017-05-28T02:28:16.687Z,100566.90
2017-05-28T02:30:45.748Z,100567.86
2017-05-28T02:33:14.841Z,100565.86
2017-05-28T02:35:43.133Z,100571.79
2017-05-28T02:38:12.214Z,100572.52
2017-05-28T02:40:41.280Z,100576.44
2017-05-28T02:43:10.365Z,100580.19
2017-05-28T02:45:39.403Z,100583.52
2017-05-28T02:48:08.482Z,100579.13
2017-05-28T02:50:37.544Z,100571.75
2017-05-28T02:53:06.625Z,100568.59
2017-05-28T02:55:34.901Z,100571.78
2017-05-28T02:58:03.949Z,100577.52
2017-05-28T03:00:33.048Z,100590.75
2017-05-28T03:03:01.343Z,100588.14
2017-05-28T03:05:30.449Z,100591.73
2017-05-28T03:07:59.495Z,100589.37
2017-05-28T03:10:28.543Z,100590.55
2017-05-28T03:12:56.845Z,100591.89
2017-05-28T03:15:25.954Z,100586.92
2017-05-28T03:17:54.269Z,100594.22
2017-05-28T03:20:23.584Z,100591.80
2017-05-28T03:22:51.855Z,100591.56
2017-05-28T03:25:20.152Z,100593.13
2017-05-28T03:27:49.584Z,100599.81
2017-05-28T03:30:18.651Z,100609.28
2017-05-28T03:32:48.006Z,100618.17
2017-05-28T03:35:17.060Z,100614.62
2017-05-28T03:37:46.132Z,100616.78
2017-05-28T03:40:15.178Z,100625.83
2017-05-28T03:42:44.225Z,100634.16
2017-05-28T03:45:13.346Z,100638.16
2017-05-28T03:47:42.389Z,100652.83
2017-05-28T03:50:11.507Z,100656.38
2017-05-28T03:52:40.552Z,100658.95
2017-05-28T03:55:09.605Z,100647.34
2017-05-28T03:57:37.923Z,100650.91
2017-05-28T04:00:07.040Z,100655.49
2017-05-28T04:02:36.101Z,100665.43
2017-05-28T04:05:05.244Z,100660.53
2017-05-28T04:07:34.289Z,100673.43
2017-05-28T04:10:03.351Z,100671.48
2017-05-28T04:12:32.413Z,100679.80
2017-05-28T04:15:01.484Z,100675.28
2017-05-28T04:17:30.558Z,100676.88
2017-05-28T04:19:59.605Z,100678.25
2017-05-28T04:22:27.897Z,100674.46
2017-05-28T04:24:56.185Z,100680.59
2017-05-28T04:27:24.486Z,100686.55
2017-05-28T04:29:53.546Z,100692.75
2017-05-28T04:32:21.826Z,100692.40
2017-05-28T04:34:50.452Z,100698.48
2017-05-28T04:37:18.740Z,100716.28
2017-05-28T04:39:48.028Z,100719.13
2017-05-28T04:42:17.108Z,100727.05
2017-05-28T04:44:46.174Z,100728.66
2017-05-28T04:47:14.645Z,100722.17
2017-05-28T04:49:43.709Z,100717.27
2017-05-28T04:52:12.019Z,100719.05
2017-05-28T04:54:41.073Z,100717.30
2017-05-28T04:57:10.152Z,100720.27
2017-05-28T04:59:39.233Z,100720.07
2017-05-28T05:02:07.527Z,100726.59
2017-05-28T05:04:35.840Z,100728.97
2017-05-28T05:07:04.385Z,100723.83
2017-05-28T05:09:33.472Z,100734.91
2017-05-28T05:12:01.775Z,100742.81
2017-05-28T05:14:30.847Z,100745.55
2017-05-28T05:16:59.133Z,100743.17
2017-05-28T05:19:28.185Z,100741.03
2017-05-28T05:21:56.485Z,100735.53
2017-05-28T05:24:24.795Z,100734.38
2017-05-28T05:26:53.840Z,100729.23
2017-05-28T05:29:22.916Z,100717.78
2017-05-28T05:31:51.981Z,100711.25
2017-05-28T05:34:20.310Z,100705.56
2017-05-28T05:36:49.381Z,100712.92
2017-05-28T05:39:18.473Z,100720.44
2017-05-28T05:41:47.528Z,100723.01
2017-05-28T05:44:16.611Z,100733.10
2017-05-28T05:46:44.919Z,100731.72
2017-05-28T05:49:14.006Z,100733.09
2017-05-28T05:51:42.304Z,100731.73
2017-05-28T05:54:10.646Z,100729.95
2017-05-28T05:56:39.699Z,100724.79
2017-05-28T05:59:08.885Z,100714.49
2017-05-28T06:01:37.210Z,100714.13
2017-05-28T06:04:05.493Z,100715.73
2017-05-28T06:06:34.548Z,100712.78
2017-05-28T06:09:03.645Z,100709.42
2017-05-28T06:11:32.705Z,100721.70
2017-05-28T06:14:01.038Z,100734.56
2017-05-28T06:16:30.140Z,100754.95
2017-05-28T06:18:59.195Z,100788.25
2017-05-28T06:21:28.245Z,100803.28
2017-05-28T06:23:57.337Z,100828.13
2017-05-28T06:26:25.620Z,100820.12
2017-05-28T06:28:54.704Z,100810.02
2017-05-28T06:31:23.048Z,100795.78
2017-05-28T06:33:51.348Z,100780.41
2017-05-28T06:36:20.423Z,100759.39
2017-05-28T06:38:49.497Z,100755.05
2017-05-28T06:41:17.807Z,100753.85
2017-05-28T06:43:46.889Z,100750.06
2017-05-28T06:46:15.197Z,100732.00
2017-05-28T06:48:44.268Z,100723.47
2017-05-28T06:51:12.583Z,100727.62
2017-05-28T06:53:41.644Z,100728.64
2017-05-28T06:56:10.046Z,100737.70
2017-05-28T06:58:39.111Z,100753.14
2017-05-28T07:01:07.706Z,100766.39
2017-05-28T07:03:35.990Z,100790.09
2017-05-28T07:06:05.078Z,100861.01
2017-05-28T07:08:34.158Z,100884.48
2017-05-28T07:11:03.241Z,100833.16
2017-05-28T07:13:31.596Z,100767.05
2017-05-28T07:15:59.931Z,100763.30
2017-05-28T07:18:28.988Z,100738.66
2017-05-28T07:20:58.066Z,100720.50
2017-05-28T07:23:27.130Z,100711.21
2017-05-28T07:25:56.203Z,100705.22
2017-05-28T07:28:25.622Z,100718.04
2017-05-28T07:30:54.698Z,100721.38
2017-05-28T07:33:23.005Z,100716.64
2017-05-28T07:35:52.621Z,100717.44
2017-05-28T07:38:21.704Z,100712.72
2017-05-28T07:40:50.895Z,100708.56
2017-05-28T07:43:19.966Z,100693.56
2017-05-28T07:45:49.044Z,100689.94
2017-05-28T07:48:18.135Z,100684.03
2017-05-28T07:50:47.276Z,100687.66
2017-05-28T07:53:16.374Z,100688.84
2017-05-28T07:55:45.476Z,100699.15
2017-05-28T07:58:14.552Z,100699.75
2017-05-28T08:00:43.667Z,100699.12
2017-05-28T08:03:12.763Z,100693.50
2017-05-28T08:05:42.752Z,100689.44
2017-05-28T08:08:11.810Z,100685.92
2017-05-28T08:10:40.901Z,100688.92
2017-05-28T08:13:09.965Z,100697.51
2017-05-28T08:15:39.412Z,100701.32
2017-05-28T08:18:08.502Z,100700.16
2017-05-28T08:20:37.618Z,100706.72
2017-05-28T08:23:07.492Z,100712.07
2017-05-28T08:25:36.581Z,100719.20
2017-05-28T08:28:05.663Z,100720.99
2017-05-28T08:30:34.707Z,100726.52
2017-05-28T08:33:03.855Z,100720.95
2017-05-28T08:35:33.161Z,100719.38
2017-05-28T08:38:02.225Z,100717.79
2017-05-28T08:40:31.656Z,100724.30
2017-05-28T08:43:00.731Z,100717.33
2017-05-28T08:45:29.820Z,100729.59
2017-05-28T08:47:58.910Z,100731.39
2017-05-28T08:50:27.974Z,100742.92
2017-05-28T08:52:57.068Z,100745.16
2017-05-28T08:55:26.113Z,100752.51
2017-05-28T08:57:55.185Z,100748.14
2017-05-28T09:00:24.256Z,100742.75
2017-05-28T09:02:53.321Z,100737.39
2017-05-28T09:05:22.413Z,100730.98
2017-05-28T09:07:51.485Z,100727.41
2017-05-28T09:10:20.996Z,100724.27
2017-05-28T09:12:50.061Z,100743.75
2017-05-28T09:15:19.193Z,100750.08
2017-05-28T09:17:48.254Z,100749.33
2017-05-28T09:20:17.329Z,100748.53
2017-05-28T09:22:46.428Z,100743.39
2017-05-28T09:25:15.525Z,100749.53
2017-05-28T09:27:49.566Z,100773.72
2017-05-28T09:30:18.656Z,100839.05
2017-05-28T09:32:48.116Z,100905.68
2017-05-28T09:35:17.174Z,100926.06
2017-05-28T09:37:46.278Z,100930.88
2017-05-28T09:40:15.347Z,100936.17
2017-05-28T09:42:44.515Z,100947.38
2017-05-28T09:45:14.130Z,100918.62
2017-05-28T09:47:44.146Z,100902.88
2017-05-28T09:50:13.401Z,100904.08
2017-05-28T09:52:42.479Z,100894.11
2017-05-28T09:55:11.588Z,100890.00
2017-05-28T09:57:40.685Z,100884.09
2017-05-28T10:00:09.764Z,100882.77
2017-05-28T10:02:38.824Z,100881.50
2017-05-28T10:05:07.165Z,100862.28
2017-05-28T10:07:36.253Z,100853.41
2017-05-28T10:10:05.509Z,100852.38
2017-05-28T10:12:34.586Z,100847.14
2017-05-28T10:15:03.669Z,100826.89
2017-05-28T10:17:32.752Z,100815.53
2017-05-28T10:20:01.833Z,100803.72
2017-05-28T10:22:30.926Z,100797.03
2017-05-28T10:25:00.002Z,100799.73
2017-05-28T10:27:29.075Z,100792.32
2017-05-28T10:29:58.173Z,100805.05
2017-05-28T10:32:27.292Z,100807.34
2017-05-28T10:34:56.437Z,100800.20
2017-05-28T10:37:25.766Z,100796.56
2017-05-28T10:39:54.840Z,100797.05
2017-05-28T10:42:23.915Z,100800.91
2017-05-28T10:44:53.014Z,100801.58
2017-05-28T10:47:22.118Z,100791.00
2017-05-28T10:49:52.680Z,100790.96
2017-05-28T10:52:21.793Z,100801.72
2017-05-28T10:54:50.890Z,100794.59
2017-05-28T10:57:19.954Z,100792.23
2017-05-28T10:59:49.064Z,100784.89
2017-05-28T11:02:18.128Z,100767.67
2017-05-28T11:04:47.196Z,100745.70
2017-05-28T11:07:16.331Z,100728.91
2017-05-28T11:09:46.378Z,100725.36
2017-05-28T11:12:15.504Z,100714.50
2017-05-28T11:14:44.593Z,100697.55
2017-05-28T11:17:13.775Z,100695.63
2017-05-28T11:19:43.869Z,100680.25
2017-05-28T11:22:15.624Z,100680.72
2017-05-28T11:24:44.745Z,100678.24
2017-05-28T11:27:13.808Z,100677.53
2017-05-28T11:29:42.895Z,100676.34
2017-05-28T11:32:11.988Z,100672.13
2017-05-28T11:34:41.057Z,100688.49
2017-05-28T11:37:10.205Z,100693.23
2017-05-28T11:39:39.282Z,100692.00
2017-05-28T11:42:08.433Z,100696.44
2017-05-28T11:44:37.584Z,100703.66
2017-05-28T11:47:06.677Z,100710.47
2017-05-28T11:49:35.763Z,100708.11
2017-05-28T11:52:04.879Z,100716.11
2017-05-28T11:54:34.223Z,100722.45
2017-05-28T11:57:03.528Z,100722.48
2017-05-28T11:59:32.622Z,100711.80
2017-05-28T12:02:00.926Z,100713.42
2017-05-28T12:04:30.016Z,100716.02
2017-05-28T12:06:59.114Z,100711.08
2017-05-28T12:09:28.201Z,100714.25
2017-05-28T12:11:57.252Z,100718.98
2017-05-28T12:14:26.366Z,100717.98
2017-05-28T12:16:55.442Z,100716.58
2017-05-28T12:19:24.546Z,100711.40
2017-05-28T12:21:53.621Z,100708.78
2017-05-28T12:24:22.697Z,100707.52
2017-05-28T12:26:52.403Z,100711.80
2017-05-28T12:29:21.487Z,100703.38
2017-05-28T12:31:50.600Z,100696.98
2017-05-28T12:34:19.699Z,100699.11
2017-05-28T12:36:48.778Z,100697.21
2017-05-28T12:39:17.867Z,100693.34
2017-05-28T12:41:46.921Z,100693.86
2017-05-28T12:44:16.004Z,100692.25
2017-05-28T12:46:45.074Z,100690.41
2017-05-28T12:49:14.488Z,100681.86
2017-05-28T12:51:43.565Z,100684.55
2017-05-28T12:54:13.440Z,100689.23
2017-05-28T12:56:42.545Z,100685.02
2017-05-28T12:59:11.630Z,100680.23
2017-05-28T13:01:40.795Z,100681.41
2017-05-28T13:04:09.878Z,100675.50
2017-05-28T13:06:38.982Z,100678.30
2017-05-28T13:09:08.064Z,100672.18
2017-05-28T13:11:37.162Z,100678.22
2017-05-28T13:14:06.473Z,100675.41
2017-05-28T13:16:35.542Z,100679.00
2017-05-28T13:19:04.641Z,100667.89
2017-05-28T13:21:33.729Z,100661.58
2017-05-28T13:24:04.090Z,100665.35
2017-05-28T13:26:33.194Z,100660.58
2017-05-28T13:29:02.296Z,100662.72
2017-05-28T13:31:31.361Z,100663.78
2017-05-28T13:34:00.721Z,100660.30
2017-05-28T13:36:29.853Z,100659.41
2017-05-28T13:38:58.934Z,100654.52
2017-05-28T13:41:29.179Z,100653.22
2017-05-28T13:43:58.289Z,100652.01
2017-05-28T13:46:27.466Z,100648.17
2017-05-28T13:48:56.529Z,100647.74
2017-05-28T13:51:25.607Z,100640.53
2017-05-28T13:53:54.648Z,100645.86
2017-05-28T13:56:23.763Z,100632.51
2017-05-28T13:58:57.057Z,100641.11
2017-05-28T14:01:26.096Z,100637.81
2017-05-28T14:03:55.175Z,100633.81
2017-05-28T14:06:24.263Z,100633.17
2017-05-28T14:08:53.313Z,100633.45
2017-05-28T14:11:22.385Z,100627.00
2017-05-28T14:13:51.443Z,100634.84
2017-05-28T14:16:20.545Z,100625.64
2017-05-28T14:18:50.564Z,100626.33
2017-05-28T14:21:19.665Z,100627.14
2017-05-28T14:23:48.717Z,100624.86
2017-05-28T14:26:19.470Z,100621.42
2017-05-28T14:28:48.566Z,100619.07
2017-05-28T14:31:17.604Z,100621.29
2017-05-28T14:33:47.556Z,100624.97
2017-05-28T14:36:16.635Z,100626.69
2017-05-28T14:38:45.709Z,100618.25
2017-05-28T14:41:15.219Z,100621.39
2017-05-28T14:43:44.330Z,100622.29
2017-05-28T14:46:13.497Z,100618.39
2017-05-28T14:48:42.566Z,100614.39
2017-05-28T14:51:11.642Z,100614.06
2017-05-28T14:53:40.742Z,100611.80
2017-05-28T14:56:09.867Z,100614.12
2017-05-28T14:58:38.954Z,100613.40
2017-05-28T15:01:08.032Z,100603.59
2017-05-28T15:03:44.465Z,100609.34
2017-05-28T15:06:20.603Z,100612.98
2017-05-28T15:08:53.848Z,100615.38
2017-05-28T15:11:30.216Z,100610.76
2017-05-28T15:13:59.341Z,100608.55
2017-05-28T15:16:35.051Z,100617.09
2017-05-28T15:19:11.724Z,100607.75
2017-05-28T15:21:45.084Z,100607.19
2017-05-28T15:24:14.852Z,100607.11
2017-05-28T15:26:49.783Z,100600.06
2017-05-28T15:29:22.850Z,100604.42
2017-05-28T15:31:51.929Z,100600.94
2017-05-28T15:34:25.663Z,100600.38
2017-05-28T15:37:01.497Z,100593.97
2017-05-28T15:39:35.877Z,100598.95
2017-05-28T15:42:09.791Z,100587.25
2017-05-28T15:44:45.000Z,100591.88
2017-05-28T15:47:19.352Z,100580.28
2017-05-28T15:49:54.566Z,100579.72
2017-05-28T15:52:31.421Z,100569.81
2017-05-28T15:55:01.547Z,100582.11
2017-05-28T15:57:34.337Z,100573.91
2017-05-28T16:00:07.681Z,100572.03
2017-05-28T16:02:40.753Z,100569.42
2017-05-28T16:05:15.586Z,100573.17
2017-05-28T16:07:47.085Z,100568.23
2017-05-28T16:10:17.235Z,100563.23
2017-05-28T16:12:50.464Z,100562.27
2017-05-28T16:15:19.534Z,100561.44
2017-05-28T16:17:48.621Z,100559.91
2017-05-28T16:20:17.820Z,100554.97
2017-05-28T16:22:47.469Z,100550.18
2017-05-28T16:25:16.528Z,100558.03
2017-05-28T16:27:45.601Z,100551.58
2017-05-28T16:30:14.859Z,100550.67
2017-05-28T16:32:44.058Z,100550.68
2017-05-28T16:35:13.986Z,100539.77
2017-05-28T16:37:44.929Z,100539.86
2017-05-28T16:40:14.441Z,100536.24
2017-05-28T16:42:43.513Z,100540.95
2017-05-28T16:45:12.577Z,100533.11
2017-05-28T16:47:41.681Z,100539.70
2017-05-28T16:50:10.738Z,100538.90
2017-05-28T16:52:40.440Z,100545.27
2017-05-28T16:55:09.512Z,100550.06
2017-05-28T16:57:38.584Z,100541.48
2017-05-28T17:00:07.697Z,100547.97
2017-05-28T17:02:36.795Z,100544.30
2017-05-28T17:05:05.867Z,100545.18
2017-05-28T17:07:34.961Z,100553.41
2017-05-28T17:10:04.073Z,100554.20
2017-05-28T17:12:33.147Z,100558.59
2017-05-28T17:15:02.213Z,100564.78
2017-05-28T17:17:31.271Z,100564.36
2017-05-28T17:20:02.238Z,100560.22
2017-05-28T17:22:31.285Z,100559.74
2017-05-28T17:25:00.381Z,100547.32
2017-05-28T17:27:29.446Z,100546.67
2017-05-28T17:29:58.594Z,100550.84
2017-05-28T17:32:27.680Z,100548.46
2017-05-28T17:34:56.767Z,100548.41
2017-05-28T17:37:25.832Z,100544.78
2017-05-28T17:39:54.940Z,100551.75
2017-05-28T17:42:24.038Z,100548.09
2017-05-28T17:44:53.130Z,100546.56
2017-05-28T17:47:22.222Z,100547.78
2017-05-28T17:49:51.619Z,100554.52
2017-05-28T17:52:20.748Z,100555.16
2017-05-28T17:54:49.904Z,100552.48
2017-05-28T17:57:19.015Z,100541.80
2017-05-28T17:59:48.092Z,100542.48
2017-05-28T18:02:17.165Z,100535.26
2017-05-28T18:04:46.229Z,100536.47
2017-05-28T18:07:16.193Z,100530.08
2017-05-28T18:09:45.254Z,100528.05
2017-05-28T18:12:14.685Z,100528.58
2017-05-28T18:14:43.085Z,100531.22
2017-05-28T18:17:12.202Z,100537.77
2017-05-28T18:19:41.265Z,100527.90
2017-05-28T18:22:10.586Z,100527.52
2017-05-28T18:24:39.743Z,100531.08
2017-05-28T18:27:08.962Z,100533.27
2017-05-28T18:29:38.021Z,100533.91
2017-05-28T18:32:07.126Z,100536.69
2017-05-28T18:34:36.199Z,100539.52
2017-05-28T18:37:05.309Z,100538.19
2017-05-28T18:39:34.408Z,100536.47
2017-05-28T18:42:03.523Z,100530.36
2017-05-28T18:44:32.604Z,100526.65
2017-05-28T18:47:01.746Z,100528.29
2017-05-28T18:49:30.948Z,100531.53
2017-05-28T18:52:00.034Z,100528.35
2017-05-28T18:54:29.078Z,100527.88
2017-05-28T18:56:58.133Z,100532.30
2017-05-28T18:59:27.238Z,100530.33
2017-05-28T19:01:56.296Z,100532.15
2017-05-28T19:04:25.361Z,100535.50
2017-05-28T19:06:54.485Z,100532.97
2017-05-28T19:09:23.557Z,100533.17
2017-05-28T19:11:52.624Z,100536.05
2017-05-28T19:14:21.713Z,100538.16
2017-05-28T19:16:51.259Z,100536.28
2017-05-28T19:19:20.431Z,100544.16
2017-05-28T19:21:49.561Z,100542.45
2017-05-28T19:24:18.917Z,100539.85
2017-05-28T19:26:48.054Z,100545.67
2017-05-28T19:29:17.223Z,100554.23
2017-05-28T19:31:46.312Z,100554.49
2017-05-28T19:34:16.219Z,100552.09
2017-05-28T19:36:45.306Z,100555.23
2017-05-28T19:39:16.621Z,100559.22
2017-05-28T19:41:45.672Z,100561.25
2017-05-28T19:44:21.569Z,100568.91
2017-05-28T19:46:57.387Z,100564.02
2017-05-28T19:49:33.405Z,100568.21
2017-05-28T19:52:02.556Z,100575.23
2017-05-28T19:54:32.815Z,100576.69
2017-05-28T19:57:01.990Z,100574.29
2017-05-28T19:59:31.556Z,100579.28
2017-05-28T20:02:00.610Z,100578.34
2017-05-28T20:04:35.604Z,100578.17
2017-05-28T20:07:11.250Z,100576.43
2017-05-28T20:09:40.476Z,100569.88
2017-05-28T20:12:09.538Z,100571.31
2017-05-28T20:14:38.667Z,100569.91
2017-05-28T20:17:07.280Z,100570.88
2017-05-28T20:19:36.334Z,100560.00
2017-05-28T20:22:05.452Z,100563.38
2017-05-28T20:24:38.706Z,100552.66
2017-05-28T20:27:07.803Z,100559.83
2017-05-28T20:29:44.240Z,100556.84
2017-05-28T20:32:14.582Z,100547.54
2017-05-28T20:34:45.805Z,100544.56
2017-05-28T20:37:18.797Z,100545.39
2017-05-28T20:39:48.523Z,100549.59
2017-05-28T20:42:24.902Z,100548.80
2017-05-28T20:44:54.788Z,100545.05
2017-05-28T20:47:23.844Z,100556.56
2017-05-28T20:49:52.925Z,100551.41
2017-05-28T20:52:21.993Z,100557.98
2017-05-28T20:54:51.083Z,100555.02
2017-05-28T20:57:20.205Z,100558.61
2017-05-28T20:59:49.496Z,100557.05
2017-05-28T21:02:20.940Z,100552.72
2017-05-28T21:04:51.636Z,100554.52
2017-05-28T21:07:20.713Z,100556.52
2017-05-28T21:09:50.488Z,100551.14
2017-05-28T21:12:19.849Z,100547.21
2017-05-28T21:14:49.174Z,100554.34
2017-05-28T21:17:19.324Z,100550.96
2017-05-28T21:19:48.674Z,100543.84
2017-05-28T21:22:18.717Z,100548.02
2017-05-28T21:24:47.826Z,100549.20
2017-05-28T21:27:16.945Z,100556.16
2017-05-28T21:29:46.018Z,100551.80
2017-05-28T21:32:15.516Z,100548.23
2017-05-28T21:34:44.592Z,100533.00
2017-05-28T21:37:13.682Z,100533.59
2017-05-28T21:39:43.666Z,100524.89
2017-05-28T21:42:12.742Z,100514.59
2017-05-28T21:44:41.850Z,100509.87
2017-05-28T21:47:10.169Z,100506.89
2017-05-28T21:49:39.252Z,100516.20
2017-05-28T21:52:08.330Z,100520.75
2017-05-28T21:54:37.432Z,100512.64
2017-05-28T21:57:06.560Z,100514.61
2017-05-28T21:59:35.641Z,100511.83
2017-05-28T22:02:04.721Z,100514.41
2017-05-28T22:04:33.855Z,100521.13
2017-05-28T22:07:02.949Z,100514.61
2017-05-28T22:09:32.041Z,100508.88
2017-05-28T22:12:01.109Z,100511.81
2017-05-28T22:14:30.200Z,100511.03
2017-05-28T22:16:59.287Z,100512.80
2017-05-28T22:19:28.349Z,100512.21
2017-05-28T22:21:57.725Z,100515.97
2017-05-28T22:24:26.790Z,100506.66
2017-05-28T22:26:55.894Z,100496.97
2017-05-28T22:29:24.987Z,100494.00
2017-05-28T22:31:54.085Z,100491.42
2017-05-28T22:34:23.175Z,100489.85
2017-05-28T22:36:52.233Z,100491.80
2017-05-28T22:39:21.284Z,100485.28
2017-05-28T22:41:50.377Z,100479.55
2017-05-28T22:44:19.449Z,100480.91
2017-05-28T22:46:48.553Z,100473.78
2017-05-28T22:49:17.609Z,100471.21
2017-05-28T22:51:46.705Z,100467.25
2017-05-28T22:54:15.799Z,100462.70
2017-05-28T22:56:44.873Z,100458.75
2017-05-28T22:59:13.941Z,100458.16
2017-05-28T23:01:42.249Z,100449.83
2017-05-28T23:04:11.528Z,100449.03
2017-05-28T23:06:41.173Z,100447.88
2017-05-28T23:09:10.368Z,100447.47
2017-05-28T23:11:39.433Z,100442.92
2017-05-28T23:14:08.501Z,100439.97
2017-05-28T23:16:37.571Z,100442.34
2017-05-28T23:19:08.354Z,100436.44
2017-05-28T23:21:38.101Z,100435.64
2017-05-28T23:24:07.227Z,100433.28
2017-05-28T23:26:37.074Z,100424.36
2017-05-28T23:29:10.699Z,100421.19
2017-05-28T23:31:39.817Z,100419.02
2017-05-28T23:34:08.884Z,100418.44
2017-05-28T23:36:38.232Z,100423.77
2017-05-28T23:39:07.359Z,100412.08
2017-05-28T23:41:36.743Z,100414.25
2017-05-28T23:44:05.857Z,100417.22
2017-05-28T23:46:34.949Z,100413.06
2017-05-28T23:49:04.042Z,100417.22
2017-05-28T23:51:33.150Z,100412.89
2017-05-28T23:54:02.226Z,100410.31
2017-05-28T23:56:31.299Z,100409.72
2017-05-28T23:59:00.377Z,100409.72
